sensor_id;sensor_type;location;lat;lon;timestamp;P1;durP1;ratioP1;P2;durP2;ratioP2
6517;SDS011;3292;48.944;9.240;2023-08-20T00:00:53;11.48;;;9.82;;
6517;SDS011;3292;48.944;9.240;2023-08-20T00:03:21;9.82;;;8.77;;
6517;SDS011;3292;48.944;9.240;2023-08-20T00:05:48;10.55;;;9.20;;
6517;SDS011;3292;48.944;9.240;2023-08-20T00:08:16;10.27;;;9.38;;
6517;SDS011;3292;48.944;9.240;2023-08-20T00:10:44;9.80;;;9.00;;
6517;SDS011;3292;48.944;9.240;2023-08-20T00:13:11;10.10;;;9.18;;
6517;SDS011;3292;48.944;9.240;2023-08-20T00:15:38;10.68;;;9.63;;
6517;SDS011;3292;48.944;9.240;2023-08-20T00:18:05;9.77;;;8.98;;
6517;SDS011;3292;48.944;9.240;2023-08-20T00:20:33;10.63;;;9.57;;
6517;SDS011;3292;48.944;9.240;2023-08-20T00:23:00;10.88;;;9.57;;
6517;SDS011;3292;48.944;9.240;2023-08-20T00:25:28;10.25;;;9.38;;
6517;SDS011;3292;48.944;9.240;2023-08-20T00:27:56;10.63;;;9.70;;
6517;SDS011;3292;48.944;9.240;2023-08-20T00:30:23;11.50;;;9.48;;
6517;SDS011;3292;48.944;9.240;2023-08-20T00:32:50;11.50;;;10.23;;
6517;SDS011;3292;48.944;9.240;2023-08-20T00:35:17;10.38;;;9.38;;
6517;SDS011;3292;48.944;9.240;2023-08-20T00:37:44;10.98;;;9.93;;
6517;SDS011;3292;48.944;9.240;2023-08-20T00:40:11;11.65;;;10.65;;
6517;SDS011;3292;48.944;9.240;2023-08-20T00:42:38;11.13;;;10.13;;
6517;SDS011;3292;48.944;9.240;2023-08-20T00:45:07;11.43;;;10.37;;
6517;SDS011;3292;48.944;9.240;2023-08-20T00:47:34;11.38;;;10.25;;
6517;SDS011;3292;48.944;9.240;2023-08-20T00:50:01;11.27;;;9.83;;
6517;SDS011;3292;48.944;9.240;2023-08-20T00:52:31;11.65;;;10.45;;
6517;SDS011;3292;48.944;9.240;2023-08-20T00:54:59;11.00;;;9.98;;
6517;SDS011;3292;48.944;9.240;2023-08-20T00:57:26;11.93;;;10.52;;
6517;SDS011;3292;48.944;9.240;2023-08-20T00:59:53;11.95;;;10.77;;
6517;SDS011;3292;48.944;9.240;2023-08-20T01:02:23;13.27;;;10.10;;
6517;SDS011;3292;48.944;9.240;2023-08-20T01:04:50;11.48;;;10.48;;
6517;SDS011;3292;48.944;9.240;2023-08-20T01:07:18;10.23;;;9.30;;
6517;SDS011;3292;48.944;9.240;2023-08-20T01:09:52;9.82;;;8.98;;
6517;SDS011;3292;48.944;9.240;2023-08-20T01:12:27;9.73;;;8.80;;
6517;SDS011;3292;48.944;9.240;2023-08-20T01:14:55;12.33;;;10.20;;
6517;SDS011;3292;48.944;9.240;2023-08-20T01:17:23;10.37;;;9.43;;
6517;SDS011;3292;48.944;9.240;2023-08-20T01:19:50;11.00;;;9.97;;
6517;SDS011;3292;48.944;9.240;2023-08-20T01:22:30;11.00;;;9.87;;
6517;SDS011;3292;48.944;9.240;2023-08-20T01:25:16;10.53;;;9.67;;
6517;SDS011;3292;48.944;9.240;2023-08-20T01:27:52;10.83;;;9.57;;
6517;SDS011;3292;48.944;9.240;2023-08-20T01:30:36;11.40;;;10.40;;
6517;SDS011;3292;48.944;9.240;2023-08-20T01:33:03;11.40;;;10.30;;
6517;SDS011;3292;48.944;9.240;2023-08-20T01:35:31;12.50;;;10.50;;
6517;SDS011;3292;48.944;9.240;2023-08-20T01:37:58;12.10;;;10.83;;
6517;SDS011;3292;48.944;9.240;2023-08-20T01:40:25;13.03;;;11.77;;
6517;SDS011;3292;48.944;9.240;2023-08-20T01:42:51;13.13;;;11.83;;
6517;SDS011;3292;48.944;9.240;2023-08-20T01:45:18;13.27;;;10.97;;
6517;SDS011;3292;48.944;9.240;2023-08-20T01:47:48;11.27;;;10.07;;
6517;SDS011;3292;48.944;9.240;2023-08-20T01:50:15;11.07;;;10.07;;
6517;SDS011;3292;48.944;9.240;2023-08-20T01:52:42;12.33;;;11.00;;
6517;SDS011;3292;48.944;9.240;2023-08-20T01:55:09;12.87;;;11.67;;
6517;SDS011;3292;48.944;9.240;2023-08-20T01:57:36;14.23;;;11.70;;
6517;SDS011;3292;48.944;9.240;2023-08-20T02:00:03;11.93;;;10.80;;
6517;SDS011;3292;48.944;9.240;2023-08-20T02:02:32;12.20;;;10.93;;
6517;SDS011;3292;48.944;9.240;2023-08-20T02:05:00;12.27;;;10.70;;
6517;SDS011;3292;48.944;9.240;2023-08-20T02:07:27;12.20;;;10.90;;
6517;SDS011;3292;48.944;9.240;2023-08-20T02:09:54;12.33;;;11.03;;
6517;SDS011;3292;48.944;9.240;2023-08-20T02:12:21;13.67;;;12.27;;
6517;SDS011;3292;48.944;9.240;2023-08-20T02:14:48;13.93;;;12.57;;
6517;SDS011;3292;48.944;9.240;2023-08-20T02:17:15;13.23;;;12.03;;
6517;SDS011;3292;48.944;9.240;2023-08-20T02:19:42;12.60;;;11.20;;
6517;SDS011;3292;48.944;9.240;2023-08-20T02:22:10;12.20;;;10.90;;
6517;SDS011;3292;48.944;9.240;2023-08-20T02:24:37;11.20;;;10.20;;
6517;SDS011;3292;48.944;9.240;2023-08-20T02:27:03;11.93;;;10.57;;
6517;SDS011;3292;48.944;9.240;2023-08-20T02:29:30;12.20;;;10.93;;
6517;SDS011;3292;48.944;9.240;2023-08-20T02:31:57;11.53;;;10.33;;
6517;SDS011;3292;48.944;9.240;2023-08-20T02:34:24;12.23;;;11.10;;
6517;SDS011;3292;48.944;9.240;2023-08-20T02:36:51;12.70;;;11.40;;
6517;SDS011;3292;48.944;9.240;2023-08-20T02:39:19;13.03;;;11.83;;
6517;SDS011;3292;48.944;9.240;2023-08-20T02:41:46;13.17;;;11.90;;
6517;SDS011;3292;48.944;9.240;2023-08-20T02:44:13;12.73;;;11.53;;
6517;SDS011;3292;48.944;9.240;2023-08-20T02:46:40;12.90;;;11.50;;
6517;SDS011;3292;48.944;9.240;2023-08-20T02:49:06;12.43;;;11.17;;
6517;SDS011;3292;48.944;9.240;2023-08-20T02:51:33;13.30;;;12.00;;
6517;SDS011;3292;48.944;9.240;2023-08-20T02:54:00;14.57;;;13.30;;
6517;SDS011;3292;48.944;9.240;2023-08-20T02:56:29;15.77;;;13.60;;
6517;SDS011;3292;48.944;9.240;2023-08-20T02:58:56;14.83;;;13.43;;
6517;SDS011;3292;48.944;9.240;2023-08-20T03:01:23;13.70;;;12.43;;
6517;SDS011;3292;48.944;9.240;2023-08-20T03:03:51;17.43;;;15.63;;
6517;SDS011;3292;48.944;9.240;2023-08-20T03:06:18;18.97;;;15.60;;
6517;SDS011;3292;48.944;9.240;2023-08-20T03:08:45;17.00;;;15.27;;
6517;SDS011;3292;48.944;9.240;2023-08-20T03:11:12;16.73;;;15.13;;
6517;SDS011;3292;48.944;9.240;2023-08-20T03:13:40;16.40;;;14.77;;
6517;SDS011;3292;48.944;9.240;2023-08-20T03:16:07;17.40;;;15.80;;
6517;SDS011;3292;48.944;9.240;2023-08-20T03:18:34;15.83;;;14.30;;
6517;SDS011;3292;48.944;9.240;2023-08-20T03:21:00;14.97;;;13.57;;
6517;SDS011;3292;48.944;9.240;2023-08-20T03:23:28;17.50;;;14.77;;
6517;SDS011;3292;48.944;9.240;2023-08-20T03:25:57;14.97;;;13.47;;
6517;SDS011;3292;48.944;9.240;2023-08-20T03:28:23;14.73;;;13.43;;
6517;SDS011;3292;48.944;9.240;2023-08-20T03:30:52;16.17;;;14.57;;
6517;SDS011;3292;48.944;9.240;2023-08-20T03:33:18;14.00;;;12.70;;
6517;SDS011;3292;48.944;9.240;2023-08-20T03:35:45;14.77;;;13.27;;
6517;SDS011;3292;48.944;9.240;2023-08-20T03:38:12;13.80;;;12.37;;
6517;SDS011;3292;48.944;9.240;2023-08-20T03:40:39;13.87;;;12.57;;
6517;SDS011;3292;48.944;9.240;2023-08-20T03:43:05;14.67;;;13.37;;
6517;SDS011;3292;48.944;9.240;2023-08-20T03:45:32;14.47;;;13.10;;
6517;SDS011;3292;48.944;9.240;2023-08-20T03:48:00;12.97;;;11.73;;
6517;SDS011;3292;48.944;9.240;2023-08-20T03:50:27;13.70;;;12.33;;
6517;SDS011;3292;48.944;9.240;2023-08-20T03:52:54;11.43;;;10.43;;
6517;SDS011;3292;48.944;9.240;2023-08-20T03:55:20;12.57;;;11.33;;
6517;SDS011;3292;48.944;9.240;2023-08-20T03:57:47;12.67;;;11.67;;
6517;SDS011;3292;48.944;9.240;2023-08-20T04:00:14;13.70;;;12.40;;
6517;SDS011;3292;48.944;9.240;2023-08-20T04:02:41;13.03;;;11.70;;
6517;SDS011;3292;48.944;9.240;2023-08-20T04:05:09;13.77;;;12.43;;
6517;SDS011;3292;48.944;9.240;2023-08-20T04:07:36;14.60;;;11.77;;
6517;SDS011;3292;48.944;9.240;2023-08-20T04:10:03;13.33;;;12.03;;
6517;SDS011;3292;48.944;9.240;2023-08-20T04:12:30;12.83;;;11.70;;
6517;SDS011;3292;48.944;9.240;2023-08-20T04:14:57;13.03;;;11.70;;
6517;SDS011;3292;48.944;9.240;2023-08-20T04:17:24;12.43;;;11.23;;
6517;SDS011;3292;48.944;9.240;2023-08-20T04:19:50;13.00;;;10.93;;
6517;SDS011;3292;48.944;9.240;2023-08-20T04:22:18;12.57;;;11.47;;
6517;SDS011;3292;48.944;9.240;2023-08-20T04:24:45;13.23;;;12.07;;
6517;SDS011;3292;48.944;9.240;2023-08-20T04:27:12;12.63;;;11.43;;
6517;SDS011;3292;48.944;9.240;2023-08-20T04:29:39;13.57;;;11.63;;
6517;SDS011;3292;48.944;9.240;2023-08-20T04:32:06;12.30;;;11.07;;
6517;SDS011;3292;48.944;9.240;2023-08-20T04:34:33;15.93;;;11.90;;
6517;SDS011;3292;48.944;9.240;2023-08-20T04:36:59;12.33;;;11.13;;
6517;SDS011;3292;48.944;9.240;2023-08-20T04:39:27;14.33;;;11.23;;
6517;SDS011;3292;48.944;9.240;2023-08-20T04:41:54;12.70;;;11.60;;
6517;SDS011;3292;48.944;9.240;2023-08-20T04:44:22;12.67;;;11.50;;
6517;SDS011;3292;48.944;9.240;2023-08-20T04:46:49;14.83;;;13.23;;
6517;SDS011;3292;48.944;9.240;2023-08-20T04:49:16;14.53;;;12.63;;
6517;SDS011;3292;48.944;9.240;2023-08-20T04:51:43;14.00;;;12.80;;
6517;SDS011;3292;48.944;9.240;2023-08-20T04:54:10;14.13;;;12.30;;
6517;SDS011;3292;48.944;9.240;2023-08-20T04:56:38;12.77;;;11.23;;
6517;SDS011;3292;48.944;9.240;2023-08-20T04:59:05;13.27;;;12.10;;
6517;SDS011;3292;48.944;9.240;2023-08-20T05:01:31;14.23;;;12.73;;
6517;SDS011;3292;48.944;9.240;2023-08-20T05:03:58;13.17;;;12.00;;
6517;SDS011;3292;48.944;9.240;2023-08-20T05:06:25;12.67;;;11.37;;
6517;SDS011;3292;48.944;9.240;2023-08-20T05:08:52;12.40;;;11.20;;
6517;SDS011;3292;48.944;9.240;2023-08-20T05:11:18;16.07;;;14.17;;
6517;SDS011;3292;48.944;9.240;2023-08-20T05:13:47;14.33;;;13.13;;
6517;SDS011;3292;48.944;9.240;2023-08-20T05:16:15;13.80;;;12.40;;
6517;SDS011;3292;48.944;9.240;2023-08-20T05:18:42;15.33;;;13.73;;
6517;SDS011;3292;48.944;9.240;2023-08-20T05:21:09;14.70;;;13.33;;
6517;SDS011;3292;48.944;9.240;2023-08-20T05:23:38;14.77;;;13.37;;
6517;SDS011;3292;48.944;9.240;2023-08-20T05:26:05;14.20;;;13.00;;
6517;SDS011;3292;48.944;9.240;2023-08-20T05:28:32;14.83;;;13.30;;
6517;SDS011;3292;48.944;9.240;2023-08-20T05:31:00;15.40;;;13.80;;
6517;SDS011;3292;48.944;9.240;2023-08-20T05:33:27;14.43;;;13.03;;
6517;SDS011;3292;48.944;9.240;2023-08-20T05:35:54;12.90;;;11.60;;
6517;SDS011;3292;48.944;9.240;2023-08-20T05:38:21;13.77;;;12.27;;
6517;SDS011;3292;48.944;9.240;2023-08-20T05:40:47;13.45;;;12.25;;
6517;SDS011;3292;48.944;9.240;2023-08-20T05:43:14;11.90;;;10.70;;
6517;SDS011;3292;48.944;9.240;2023-08-20T05:45:41;11.63;;;10.53;;
6517;SDS011;3292;48.944;9.240;2023-08-20T05:48:09;9.82;;;8.82;;
6517;SDS011;3292;48.944;9.240;2023-08-20T05:50:36;10.60;;;9.70;;
6517;SDS011;3292;48.944;9.240;2023-08-20T05:53:03;12.90;;;10.13;;
6517;SDS011;3292;48.944;9.240;2023-08-20T05:55:30;10.18;;;9.23;;
6517;SDS011;3292;48.944;9.240;2023-08-20T05:57:57;10.15;;;9.13;;
6517;SDS011;3292;48.944;9.240;2023-08-20T06:00:23;11.68;;;10.50;;
6517;SDS011;3292;48.944;9.240;2023-08-20T06:02:50;10.90;;;9.85;;
6517;SDS011;3292;48.944;9.240;2023-08-20T06:05:18;10.23;;;9.23;;
6517;SDS011;3292;48.944;9.240;2023-08-20T06:07:45;11.40;;;9.90;;
6517;SDS011;3292;48.944;9.240;2023-08-20T06:10:12;10.98;;;9.98;;
6517;SDS011;3292;48.944;9.240;2023-08-20T06:12:38;10.18;;;9.27;;
6517;SDS011;3292;48.944;9.240;2023-08-20T06:15:06;10.00;;;9.07;;
6517;SDS011;3292;48.944;9.240;2023-08-20T06:17:33;8.95;;;8.25;;
6517;SDS011;3292;48.944;9.240;2023-08-20T06:20:00;9.35;;;8.55;;
6517;SDS011;3292;48.944;9.240;2023-08-20T06:22:31;9.82;;;8.95;;
6517;SDS011;3292;48.944;9.240;2023-08-20T06:24:58;9.95;;;9.00;;
6517;SDS011;3292;48.944;9.240;2023-08-20T06:27:25;10.55;;;9.18;;
6517;SDS011;3292;48.944;9.240;2023-08-20T06:29:52;11.45;;;9.90;;
6517;SDS011;3292;48.944;9.240;2023-08-20T06:32:18;11.68;;;9.70;;
6517;SDS011;3292;48.944;9.240;2023-08-20T06:34:45;11.07;;;9.73;;
6517;SDS011;3292;48.944;9.240;2023-08-20T06:37:12;9.20;;;8.40;;
6517;SDS011;3292;48.944;9.240;2023-08-20T06:39:40;12.20;;;9.65;;
6517;SDS011;3292;48.944;9.240;2023-08-20T06:42:07;10.05;;;8.80;;
6517;SDS011;3292;48.944;9.240;2023-08-20T06:44:34;9.95;;;9.02;;
6517;SDS011;3292;48.944;9.240;2023-08-20T06:47:01;9.82;;;8.93;;
6517;SDS011;3292;48.944;9.240;2023-08-20T06:49:28;10.43;;;9.27;;
6517;SDS011;3292;48.944;9.240;2023-08-20T06:51:54;11.10;;;8.25;;
6517;SDS011;3292;48.944;9.240;2023-08-20T06:54:21;10.52;;;9.45;;
6517;SDS011;3292;48.944;9.240;2023-08-20T06:56:49;10.73;;;9.75;;
6517;SDS011;3292;48.944;9.240;2023-08-20T06:59:16;9.65;;;8.65;;
6517;SDS011;3292;48.944;9.240;2023-08-20T07:01:43;10.90;;;10.00;;
6517;SDS011;3292;48.944;9.240;2023-08-20T07:04:10;11.07;;;10.18;;
6517;SDS011;3292;48.944;9.240;2023-08-20T07:06:38;11.23;;;9.93;;
6517;SDS011;3292;48.944;9.240;2023-08-20T07:09:05;10.77;;;9.68;;
6517;SDS011;3292;48.944;9.240;2023-08-20T07:11:32;11.48;;;9.02;;
6517;SDS011;3292;48.944;9.240;2023-08-20T07:14:00;9.93;;;9.00;;
6517;SDS011;3292;48.944;9.240;2023-08-20T07:16:27;10.25;;;9.23;;
6517;SDS011;3292;48.944;9.240;2023-08-20T07:18:54;10.00;;;9.10;;
6517;SDS011;3292;48.944;9.240;2023-08-20T07:21:21;10.45;;;9.48;;
6517;SDS011;3292;48.944;9.240;2023-08-20T07:23:48;11.48;;;10.00;;
6517;SDS011;3292;48.944;9.240;2023-08-20T07:26:14;9.90;;;8.90;;
6517;SDS011;3292;48.944;9.240;2023-08-20T07:28:41;9.73;;;8.82;;
6517;SDS011;3292;48.944;9.240;2023-08-20T07:31:25;10.38;;;9.43;;
6517;SDS011;3292;48.944;9.240;2023-08-20T07:33:53;10.60;;;9.50;;
6517;SDS011;3292;48.944;9.240;2023-08-20T07:36:22;10.23;;;9.30;;
6517;SDS011;3292;48.944;9.240;2023-08-20T07:38:49;13.30;;;11.00;;
6517;SDS011;3292;48.944;9.240;2023-08-20T07:41:17;11.95;;;10.43;;
6517;SDS011;3292;48.944;9.240;2023-08-20T07:43:44;11.85;;;10.75;;
6517;SDS011;3292;48.944;9.240;2023-08-20T07:46:12;12.48;;;11.18;;
6517;SDS011;3292;48.944;9.240;2023-08-20T07:48:40;12.13;;;10.98;;
6517;SDS011;3292;48.944;9.240;2023-08-20T07:51:08;12.02;;;10.85;;
6517;SDS011;3292;48.944;9.240;2023-08-20T07:53:35;11.07;;;9.98;;
6517;SDS011;3292;48.944;9.240;2023-08-20T07:56:01;11.90;;;10.85;;
6517;SDS011;3292;48.944;9.240;2023-08-20T07:58:29;11.73;;;10.55;;
6517;SDS011;3292;48.944;9.240;2023-08-20T08:00:56;9.50;;;8.60;;
6517;SDS011;3292;48.944;9.240;2023-08-20T08:03:24;11.00;;;10.00;;
6517;SDS011;3292;48.944;9.240;2023-08-20T08:05:52;12.25;;;11.15;;
6517;SDS011;3292;48.944;9.240;2023-08-20T08:08:20;11.68;;;10.60;;
6517;SDS011;3292;48.944;9.240;2023-08-20T08:10:47;11.23;;;9.60;;
6517;SDS011;3292;48.944;9.240;2023-08-20T08:13:15;10.43;;;9.38;;
6517;SDS011;3292;48.944;9.240;2023-08-20T08:15:45;12.30;;;11.30;;
6517;SDS011;3292;48.944;9.240;2023-08-20T08:18:12;10.45;;;9.45;;
6517;SDS011;3292;48.944;9.240;2023-08-20T08:20:39;11.10;;;10.10;;
6517;SDS011;3292;48.944;9.240;2023-08-20T08:23:07;10.95;;;9.85;;
6517;SDS011;3292;48.944;9.240;2023-08-20T08:25:34;11.93;;;10.80;;
6517;SDS011;3292;48.944;9.240;2023-08-20T08:28:00;11.05;;;9.68;;
6517;SDS011;3292;48.944;9.240;2023-08-20T08:30:27;10.60;;;9.70;;
6517;SDS011;3292;48.944;9.240;2023-08-20T08:32:55;10.75;;;9.75;;
6517;SDS011;3292;48.944;9.240;2023-08-20T08:35:21;11.48;;;10.38;;
6517;SDS011;3292;48.944;9.240;2023-08-20T08:37:48;11.25;;;10.10;;
6517;SDS011;3292;48.944;9.240;2023-08-20T08:40:16;13.02;;;10.82;;
6517;SDS011;3292;48.944;9.240;2023-08-20T08:42:44;12.43;;;10.80;;
6517;SDS011;3292;48.944;9.240;2023-08-20T08:45:14;11.63;;;10.40;;
6517;SDS011;3292;48.944;9.240;2023-08-20T08:47:43;10.40;;;9.50;;
6517;SDS011;3292;48.944;9.240;2023-08-20T08:50:11;9.25;;;8.45;;
6517;SDS011;3292;48.944;9.240;2023-08-20T08:52:38;10.88;;;9.85;;
6517;SDS011;3292;48.944;9.240;2023-08-20T08:55:06;10.50;;;9.50;;
6517;SDS011;3292;48.944;9.240;2023-08-20T08:57:36;11.45;;;9.82;;
6517;SDS011;3292;48.944;9.240;2023-08-20T09:00:03;10.43;;;9.30;;
6517;SDS011;3292;48.944;9.240;2023-08-20T09:02:32;11.52;;;9.48;;
6517;SDS011;3292;48.944;9.240;2023-08-20T09:04:59;10.30;;;9.30;;
6517;SDS011;3292;48.944;9.240;2023-08-20T09:07:26;10.73;;;9.65;;
6517;SDS011;3292;48.944;9.240;2023-08-20T09:09:57;10.18;;;9.15;;
6517;SDS011;3292;48.944;9.240;2023-08-20T09:12:25;12.07;;;9.77;;
6517;SDS011;3292;48.944;9.240;2023-08-20T09:14:54;11.40;;;9.40;;
6517;SDS011;3292;48.944;9.240;2023-08-20T09:17:25;11.02;;;9.35;;
6517;SDS011;3292;48.944;9.240;2023-08-20T09:19:53;10.55;;;9.45;;
6517;SDS011;3292;48.944;9.240;2023-08-20T09:22:22;9.45;;;8.55;;
6517;SDS011;3292;48.944;9.240;2023-08-20T09:24:52;10.07;;;8.60;;
6517;SDS011;3292;48.944;9.240;2023-08-20T09:27:19;9.55;;;8.65;;
6517;SDS011;3292;48.944;9.240;2023-08-20T09:29:47;9.80;;;8.40;;
6517;SDS011;3292;48.944;9.240;2023-08-20T09:32:17;10.80;;;9.70;;
6517;SDS011;3292;48.944;9.240;2023-08-20T09:34:44;10.23;;;7.97;;
6517;SDS011;3292;48.944;9.240;2023-08-20T09:37:12;9.73;;;8.90;;
6517;SDS011;3292;48.944;9.240;2023-08-20T09:39:40;9.73;;;8.73;;
6517;SDS011;3292;48.944;9.240;2023-08-20T09:42:07;10.25;;;8.48;;
6517;SDS011;3292;48.944;9.240;2023-08-20T09:44:35;12.50;;;8.30;;
6517;SDS011;3292;48.944;9.240;2023-08-20T09:47:05;8.23;;;7.53;;
6517;SDS011;3292;48.944;9.240;2023-08-20T09:49:37;7.75;;;7.05;;
6517;SDS011;3292;48.944;9.240;2023-08-20T09:52:05;9.73;;;8.02;;
6517;SDS011;3292;48.944;9.240;2023-08-20T09:54:49;10.70;;;7.88;;
6517;SDS011;3292;48.944;9.240;2023-08-20T09:57:31;8.23;;;7.05;;
6517;SDS011;3292;48.944;9.240;2023-08-20T10:00:00;9.20;;;8.30;;
6517;SDS011;3292;48.944;9.240;2023-08-20T10:02:27;8.63;;;7.72;;
6517;SDS011;3292;48.944;9.240;2023-08-20T10:04:56;9.07;;;7.20;;
6517;SDS011;3292;48.944;9.240;2023-08-20T10:07:26;8.23;;;7.28;;
6517;SDS011;3292;48.944;9.240;2023-08-20T10:09:57;7.93;;;7.22;;
6517;SDS011;3292;48.944;9.240;2023-08-20T10:12:25;9.27;;;7.50;;
6517;SDS011;3292;48.944;9.240;2023-08-20T10:14:53;7.68;;;7.10;;
6517;SDS011;3292;48.944;9.240;2023-08-20T10:17:20;8.60;;;7.68;;
6517;SDS011;3292;48.944;9.240;2023-08-20T10:19:48;8.10;;;7.30;;
6517;SDS011;3292;48.944;9.240;2023-08-20T10:22:18;9.35;;;7.72;;
6517;SDS011;3292;48.944;9.240;2023-08-20T10:24:47;7.72;;;6.90;;
6517;SDS011;3292;48.944;9.240;2023-08-20T10:27:25;7.85;;;7.10;;
6517;SDS011;3292;48.944;9.240;2023-08-20T10:29:53;8.10;;;7.10;;
6517;SDS011;3292;48.944;9.240;2023-08-20T10:32:20;8.05;;;6.88;;
6517;SDS011;3292;48.944;9.240;2023-08-20T10:35:07;8.82;;;7.57;;
6517;SDS011;3292;48.944;9.240;2023-08-20T10:37:36;7.50;;;6.80;;
6517;SDS011;3292;48.944;9.240;2023-08-20T10:40:05;7.78;;;7.05;;
6517;SDS011;3292;48.944;9.240;2023-08-20T10:42:34;8.10;;;7.03;;
6517;SDS011;3292;48.944;9.240;2023-08-20T10:45:07;7.78;;;7.07;;
6517;SDS011;3292;48.944;9.240;2023-08-20T10:47:41;10.05;;;7.40;;
6517;SDS011;3292;48.944;9.240;2023-08-20T10:50:09;8.00;;;7.30;;
6517;SDS011;3292;48.944;9.240;2023-08-20T10:52:39;7.65;;;6.75;;
6517;SDS011;3292;48.944;9.240;2023-08-20T10:55:07;8.73;;;7.47;;
6517;SDS011;3292;48.944;9.240;2023-08-20T10:57:34;7.88;;;7.13;;
6517;SDS011;3292;48.944;9.240;2023-08-20T11:00:03;7.85;;;7.07;;
6517;SDS011;3292;48.944;9.240;2023-08-20T11:02:36;8.75;;;7.75;;
6517;SDS011;3292;48.944;9.240;2023-08-20T11:05:03;7.68;;;6.97;;
6517;SDS011;3292;48.944;9.240;2023-08-20T11:07:43;7.80;;;6.82;;
6517;SDS011;3292;48.944;9.240;2023-08-20T11:10:12;7.68;;;6.93;;
6517;SDS011;3292;48.944;9.240;2023-08-20T11:12:39;11.30;;;7.50;;
6517;SDS011;3292;48.944;9.240;2023-08-20T11:15:07;8.30;;;7.22;;
6517;SDS011;3292;48.944;9.240;2023-08-20T11:17:39;10.55;;;7.18;;
6517;SDS011;3292;48.944;9.240;2023-08-20T11:20:07;7.60;;;6.90;;
6517;SDS011;3292;48.944;9.240;2023-08-20T11:22:36;7.55;;;6.85;;
6517;SDS011;3292;48.944;9.240;2023-08-20T11:25:04;7.30;;;6.57;;
6517;SDS011;3292;48.944;9.240;2023-08-20T11:27:31;6.88;;;5.80;;
6517;SDS011;3292;48.944;9.240;2023-08-20T11:29:58;7.40;;;6.03;;
6517;SDS011;3292;48.944;9.240;2023-08-20T11:32:25;7.20;;;6.50;;
6517;SDS011;3292;48.944;9.240;2023-08-20T11:34:52;7.13;;;6.45;;
6517;SDS011;3292;48.944;9.240;2023-08-20T11:37:20;7.28;;;6.43;;
6517;SDS011;3292;48.944;9.240;2023-08-20T11:39:47;7.40;;;6.75;;
6517;SDS011;3292;48.944;9.240;2023-08-20T11:42:16;8.65;;;6.97;;
6517;SDS011;3292;48.944;9.240;2023-08-20T11:44:45;7.13;;;6.18;;
6517;SDS011;3292;48.944;9.240;2023-08-20T11:47:15;7.60;;;6.88;;
6517;SDS011;3292;48.944;9.240;2023-08-20T11:49:43;7.43;;;6.72;;
6517;SDS011;3292;48.944;9.240;2023-08-20T11:52:10;7.07;;;6.38;;
6517;SDS011;3292;48.944;9.240;2023-08-20T11:54:38;7.07;;;6.28;;
6517;SDS011;3292;48.944;9.240;2023-08-20T11:57:05;7.88;;;5.85;;
6517;SDS011;3292;48.944;9.240;2023-08-20T11:59:34;7.75;;;6.95;;
6517;SDS011;3292;48.944;9.240;2023-08-20T12:02:02;7.15;;;6.45;;
6517;SDS011;3292;48.944;9.240;2023-08-20T12:04:30;5.95;;;5.32;;
6517;SDS011;3292;48.944;9.240;2023-08-20T12:07:02;11.32;;;5.97;;
6517;SDS011;3292;48.944;9.240;2023-08-20T12:09:30;5.95;;;5.45;;
6517;SDS011;3292;48.944;9.240;2023-08-20T12:11:57;8.25;;;6.30;;
6517;SDS011;3292;48.944;9.240;2023-08-20T12:14:25;7.03;;;5.95;;
6517;SDS011;3292;48.944;9.240;2023-08-20T12:16:54;7.70;;;6.18;;
6517;SDS011;3292;48.944;9.240;2023-08-20T12:19:21;6.88;;;5.95;;
6517;SDS011;3292;48.944;9.240;2023-08-20T12:21:48;7.00;;;5.93;;
6517;SDS011;3292;48.944;9.240;2023-08-20T12:24:15;7.03;;;6.32;;
6517;SDS011;3292;48.944;9.240;2023-08-20T12:26:44;9.02;;;5.72;;
6517;SDS011;3292;48.944;9.240;2023-08-20T12:29:11;7.32;;;6.32;;
6517;SDS011;3292;48.944;9.240;2023-08-20T12:31:37;6.85;;;5.55;;
6517;SDS011;3292;48.944;9.240;2023-08-20T12:34:06;7.97;;;5.93;;
6517;SDS011;3292;48.944;9.240;2023-08-20T12:36:34;7.45;;;5.95;;
6517;SDS011;3292;48.944;9.240;2023-08-20T12:39:01;8.30;;;6.55;;
6517;SDS011;3292;48.944;9.240;2023-08-20T12:41:29;6.20;;;5.60;;
6517;SDS011;3292;48.944;9.240;2023-08-20T12:43:56;6.15;;;5.65;;
6517;SDS011;3292;48.944;9.240;2023-08-20T12:46:23;9.80;;;6.00;;
6517;SDS011;3292;48.944;9.240;2023-08-20T12:48:50;7.22;;;5.70;;
6517;SDS011;3292;48.944;9.240;2023-08-20T12:51:18;9.38;;;5.88;;
6517;SDS011;3292;48.944;9.240;2023-08-20T12:53:45;6.57;;;5.93;;
6517;SDS011;3292;48.944;9.240;2023-08-20T12:56:12;8.63;;;6.10;;
6517;SDS011;3292;48.944;9.240;2023-08-20T12:58:40;7.10;;;5.95;;
6517;SDS011;3292;48.944;9.240;2023-08-20T13:01:07;6.78;;;6.07;;
6517;SDS011;3292;48.944;9.240;2023-08-20T13:03:35;6.18;;;5.68;;
6517;SDS011;3292;48.944;9.240;2023-08-20T13:06:03;7.68;;;6.00;;
6517;SDS011;3292;48.944;9.240;2023-08-20T13:08:32;6.68;;;6.05;;
6517;SDS011;3292;48.944;9.240;2023-08-20T13:10:59;7.05;;;6.43;;
6517;SDS011;3292;48.944;9.240;2023-08-20T13:13:28;6.70;;;6.07;;
6517;SDS011;3292;48.944;9.240;2023-08-20T13:15:58;8.63;;;6.53;;
6517;SDS011;3292;48.944;9.240;2023-08-20T13:18:26;9.52;;;5.78;;
6517;SDS011;3292;48.944;9.240;2023-08-20T13:20:53;6.35;;;5.78;;
6517;SDS011;3292;48.944;9.240;2023-08-20T13:23:20;6.60;;;5.65;;
6517;SDS011;3292;48.944;9.240;2023-08-20T13:25:50;7.03;;;6.10;;
6517;SDS011;3292;48.944;9.240;2023-08-20T13:28:17;6.60;;;6.00;;
6517;SDS011;3292;48.944;9.240;2023-08-20T13:30:44;7.68;;;5.95;;
6517;SDS011;3292;48.944;9.240;2023-08-20T13:33:11;8.93;;;6.07;;
6517;SDS011;3292;48.944;9.240;2023-08-20T13:35:38;7.70;;;5.70;;
6517;SDS011;3292;48.944;9.240;2023-08-20T13:38:06;6.55;;;5.68;;
6517;SDS011;3292;48.944;9.240;2023-08-20T13:40:33;5.80;;;5.22;;
6517;SDS011;3292;48.944;9.240;2023-08-20T13:43:01;8.10;;;5.53;;
6517;SDS011;3292;48.944;9.240;2023-08-20T13:45:28;6.30;;;5.55;;
6517;SDS011;3292;48.944;9.240;2023-08-20T13:47:55;5.72;;;5.30;;
6517;SDS011;3292;48.944;9.240;2023-08-20T13:50:22;8.23;;;5.60;;
6517;SDS011;3292;48.944;9.240;2023-08-20T13:52:49;7.35;;;5.32;;
6517;SDS011;3292;48.944;9.240;2023-08-20T13:55:16;8.82;;;5.82;;
6517;SDS011;3292;48.944;9.240;2023-08-20T13:57:43;7.88;;;5.82;;
6517;SDS011;3292;48.944;9.240;2023-08-20T14:00:12;5.40;;;4.90;;
6517;SDS011;3292;48.944;9.240;2023-08-20T14:02:39;6.15;;;4.97;;
6517;SDS011;3292;48.944;9.240;2023-08-20T14:05:06;7.72;;;5.30;;
6517;SDS011;3292;48.944;9.240;2023-08-20T14:07:34;6.93;;;5.40;;
6517;SDS011;3292;48.944;9.240;2023-08-20T14:10:00;6.55;;;5.07;;
6517;SDS011;3292;48.944;9.240;2023-08-20T14:12:28;6.13;;;4.97;;
6517;SDS011;3292;48.944;9.240;2023-08-20T14:14:55;5.30;;;4.80;;
6517;SDS011;3292;48.944;9.240;2023-08-20T14:17:23;6.68;;;4.45;;
6517;SDS011;3292;48.944;9.240;2023-08-20T14:19:50;6.65;;;4.38;;
6517;SDS011;3292;48.944;9.240;2023-08-20T14:22:17;5.03;;;4.43;;
6517;SDS011;3292;48.944;9.240;2023-08-20T14:24:44;7.32;;;4.32;;
6517;SDS011;3292;48.944;9.240;2023-08-20T14:27:11;6.57;;;4.13;;
6517;SDS011;3292;48.944;9.240;2023-08-20T14:29:38;8.80;;;4.57;;
6517;SDS011;3292;48.944;9.240;2023-08-20T14:32:04;4.53;;;4.13;;
6517;SDS011;3292;48.944;9.240;2023-08-20T14:34:33;4.75;;;4.25;;
6517;SDS011;3292;48.944;9.240;2023-08-20T14:36:59;5.90;;;4.32;;
6517;SDS011;3292;48.944;9.240;2023-08-20T14:39:26;6.07;;;4.28;;
6517;SDS011;3292;48.944;9.240;2023-08-20T14:41:56;4.47;;;3.90;;
6517;SDS011;3292;48.944;9.240;2023-08-20T14:44:23;5.05;;;4.13;;
6517;SDS011;3292;48.944;9.240;2023-08-20T14:46:55;8.02;;;4.25;;
6517;SDS011;3292;48.944;9.240;2023-08-20T14:49:22;5.45;;;3.92;;
6517;SDS011;3292;48.944;9.240;2023-08-20T14:51:50;5.63;;;3.80;;
6517;SDS011;3292;48.944;9.240;2023-08-20T14:54:17;6.55;;;4.07;;
6517;SDS011;3292;48.944;9.240;2023-08-20T14:56:45;5.13;;;3.63;;
6517;SDS011;3292;48.944;9.240;2023-08-20T14:59:13;6.35;;;4.00;;
6517;SDS011;3292;48.944;9.240;2023-08-20T15:01:40;6.07;;;3.65;;
6517;SDS011;3292;48.944;9.240;2023-08-20T15:04:08;4.93;;;3.70;;
6517;SDS011;3292;48.944;9.240;2023-08-20T15:06:35;4.28;;;3.88;;